sensor_id;sensor_type;location;lat;lon;timestamp;temperature;humidity
4461;DHT22;2243;48.812;9.232;2023-02-17T00:00:34;11.60;96.00
4461;DHT22;2243;48.812;9.232;2023-02-17T00:03:05;11.60;96.10
4461;DHT22;2243;48.812;9.232;2023-02-17T00:05:38;11.60;96.00
4461;DHT22;2243;48.812;9.232;2023-02-17T00:08:10;11.70;96.00
4461;DHT22;2243;48.812;9.232;2023-02-17T00:10:41;11.70;96.10
4461;DHT22;2243;48.812;9.232;2023-02-17T00:13:12;11.70;96.00
4461;DHT22;2243;48.812;9.232;2023-02-17T00:15:43;11.70;96.00
4461;DHT22;2243;48.812;9.232;2023-02-17T00:18:14;11.70;95.90
4461;DHT22;2243;48.812;9.232;2023-02-17T00:20:45;11.70;96.00
4461;DHT22;2243;48.812;9.232;2023-02-17T00:23:15;11.60;96.00
4461;DHT22;2243;48.812;9.232;2023-02-17T00:25:47;11.50;96.00
4461;DHT22;2243;48.812;9.232;2023-02-17T00:28:18;11.50;96.00
4461;DHT22;2243;48.812;9.232;2023-02-17T00:30:48;11.50;96.20
4461;DHT22;2243;48.812;9.232;2023-02-17T00:33:19;11.50;96.30
4461;DHT22;2243;48.812;9.232;2023-02-17T00:35:50;11.50;96.10
4461;DHT22;2243;48.812;9.232;2023-02-17T00:38:21;11.60;96.20
4461;DHT22;2243;48.812;9.232;2023-02-17T00:40:52;11.50;96.30
4461;DHT22;2243;48.812;9.232;2023-02-17T00:43:23;11.60;96.30
4461;DHT22;2243;48.812;9.232;2023-02-17T00:45:54;11.40;96.50
4461;DHT22;2243;48.812;9.232;2023-02-17T00:48:25;11.50;96.50
4461;DHT22;2243;48.812;9.232;2023-02-17T00:50:56;11.30;96.60
4461;DHT22;2243;48.812;9.232;2023-02-17T00:53:27;11.40;96.70
4461;DHT22;2243;48.812;9.232;2023-02-17T00:55:58;11.40;96.70
4461;DHT22;2243;48.812;9.232;2023-02-17T00:58:29;11.30;96.90
4461;DHT22;2243;48.812;9.232;2023-02-17T01:01:01;11.30;97.00
4461;DHT22;2243;48.812;9.232;2023-02-17T01:03:32;11.30;97.00
4461;DHT22;2243;48.812;9.232;2023-02-17T01:06:08;11.30;97.00
4461;DHT22;2243;48.812;9.232;2023-02-17T01:08:40;11.20;97.10
4461;DHT22;2243;48.812;9.232;2023-02-17T01:11:23;11.30;97.10
4461;DHT22;2243;48.812;9.232;2023-02-17T01:13:56;11.20;97.30
4461;DHT22;2243;48.812;9.232;2023-02-17T01:16:29;11.20;97.40
4461;DHT22;2243;48.812;9.232;2023-02-17T01:19:08;11.30;97.20
4461;DHT22;2243;48.812;9.232;2023-02-17T01:21:41;11.10;97.50
4461;DHT22;2243;48.812;9.232;2023-02-17T01:24:12;11.10;97.60
4461;DHT22;2243;48.812;9.232;2023-02-17T01:26:43;11.00;97.70
4461;DHT22;2243;48.812;9.232;2023-02-17T01:29:14;11.00;97.70
4461;DHT22;2243;48.812;9.232;2023-02-17T01:31:45;11.10;97.60
4461;DHT22;2243;48.812;9.232;2023-02-17T01:34:16;11.20;97.50
4461;DHT22;2243;48.812;9.232;2023-02-17T01:36:47;11.20;97.40
4461;DHT22;2243;48.812;9.232;2023-02-17T01:39:18;11.20;97.50
4461;DHT22;2243;48.812;9.232;2023-02-17T01:41:49;11.30;97.50
4461;DHT22;2243;48.812;9.232;2023-02-17T01:44:22;11.10;97.70
4461;DHT22;2243;48.812;9.232;2023-02-17T01:46:55;11.20;97.70
4461;DHT22;2243;48.812;9.232;2023-02-17T01:49:34;11.20;97.70
4461;DHT22;2243;48.812;9.232;2023-02-17T01:54:51;11.20;97.70
4461;DHT22;2243;48.812;9.232;2023-02-17T01:57:29;11.10;97.90
4461;DHT22;2243;48.812;9.232;2023-02-17T02:00:03;11.00;97.90
4461;DHT22;2243;48.812;9.232;2023-02-17T02:02:36;10.90;98.20
4461;DHT22;2243;48.812;9.232;2023-02-17T02:05:09;11.00;98.10
4461;DHT22;2243;48.812;9.232;2023-02-17T02:07:42;11.00;98.20
4461;DHT22;2243;48.812;9.232;2023-02-17T02:10:18;11.10;98.00
4461;DHT22;2243;48.812;9.232;2023-02-17T02:12:49;11.20;98.00
4461;DHT22;2243;48.812;9.232;2023-02-17T02:15:22;11.20;97.80
4461;DHT22;2243;48.812;9.232;2023-02-17T02:18:07;11.10;98.10
4461;DHT22;2243;48.812;9.232;2023-02-17T02:21:14;11.00;98.20
4461;DHT22;2243;48.812;9.232;2023-02-17T02:30:56;10.90;98.70
4461;DHT22;2243;48.812;9.232;2023-02-17T02:33:42;11.00;98.40
4461;DHT22;2243;48.812;9.232;2023-02-17T02:36:33;11.00;98.30
4461;DHT22;2243;48.812;9.232;2023-02-17T02:39:15;11.10;98.30
4461;DHT22;2243;48.812;9.232;2023-02-17T02:41:52;11.10;98.30
4461;DHT22;2243;48.812;9.232;2023-02-17T02:44:25;11.00;98.40
4461;DHT22;2243;48.812;9.232;2023-02-17T02:47:41;11.00;98.30
4461;DHT22;2243;48.812;9.232;2023-02-17T02:59:48;11.00;98.40
4461;DHT22;2243;48.812;9.232;2023-02-17T03:05:46;11.00;98.40
4461;DHT22;2243;48.812;9.232;2023-02-17T03:08:53;10.90;98.60
4461;DHT22;2243;48.812;9.232;2023-02-17T03:11:28;10.90;98.60
4461;DHT22;2243;48.812;9.232;2023-02-17T03:14:07;11.00;98.40
4461;DHT22;2243;48.812;9.232;2023-02-17T03:16:42;11.00;98.50
4461;DHT22;2243;48.812;9.232;2023-02-17T03:19:16;11.00;98.30
4461;DHT22;2243;48.812;9.232;2023-02-17T03:22:08;10.90;98.30
4461;DHT22;2243;48.812;9.232;2023-02-17T03:24:42;10.80;98.60
4461;DHT22;2243;48.812;9.232;2023-02-17T03:27:13;10.90;98.50
4461;DHT22;2243;48.812;9.232;2023-02-17T03:29:44;10.90;98.40
4461;DHT22;2243;48.812;9.232;2023-02-17T03:32:16;10.90;98.50
4461;DHT22;2243;48.812;9.232;2023-02-17T03:34:46;10.80;98.70
4461;DHT22;2243;48.812;9.232;2023-02-17T03:37:17;10.80;98.70
4461;DHT22;2243;48.812;9.232;2023-02-17T03:39:48;10.80;98.60
4461;DHT22;2243;48.812;9.232;2023-02-17T03:42:19;10.90;98.50
4461;DHT22;2243;48.812;9.232;2023-02-17T03:44:50;10.90;98.50
4461;DHT22;2243;48.812;9.232;2023-02-17T03:47:21;11.00;98.40
4461;DHT22;2243;48.812;9.232;2023-02-17T03:49:52;10.90;98.60
4461;DHT22;2243;48.812;9.232;2023-02-17T03:52:23;10.80;98.70
4461;DHT22;2243;48.812;9.232;2023-02-17T03:54:54;10.90;98.70
4461;DHT22;2243;48.812;9.232;2023-02-17T03:57:25;10.80;98.80
4461;DHT22;2243;48.812;9.232;2023-02-17T03:59:56;10.80;98.80
4461;DHT22;2243;48.812;9.232;2023-02-17T04:02:27;10.70;99.00
4461;DHT22;2243;48.812;9.232;2023-02-17T04:04:58;10.70;99.10
4461;DHT22;2243;48.812;9.232;2023-02-17T04:07:29;10.80;99.00
4461;DHT22;2243;48.812;9.232;2023-02-17T04:10:00;10.80;99.00
4461;DHT22;2243;48.812;9.232;2023-02-17T04:12:34;10.80;99.10
4461;DHT22;2243;48.812;9.232;2023-02-17T04:15:05;10.70;99.20
4461;DHT22;2243;48.812;9.232;2023-02-17T04:17:37;10.80;99.30
4461;DHT22;2243;48.812;9.232;2023-02-17T04:20:08;10.70;99.30
4461;DHT22;2243;48.812;9.232;2023-02-17T04:22:40;10.80;99.30
4461;DHT22;2243;48.812;9.232;2023-02-17T04:25:11;10.80;99.30
4461;DHT22;2243;48.812;9.232;2023-02-17T04:27:42;10.90;99.10
4461;DHT22;2243;48.812;9.232;2023-02-17T04:30:13;10.80;99.30
4461;DHT22;2243;48.812;9.232;2023-02-17T04:32:44;10.70;99.50
4461;DHT22;2243;48.812;9.232;2023-02-17T04:35:15;10.60;99.70
4461;DHT22;2243;48.812;9.232;2023-02-17T04:37:46;10.50;99.70
4461;DHT22;2243;48.812;9.232;2023-02-17T04:40:17;10.50;99.80
4461;DHT22;2243;48.812;9.232;2023-02-17T04:42:49;10.60;99.70
4461;DHT22;2243;48.812;9.232;2023-02-17T04:45:20;10.70;99.80
4461;DHT22;2243;48.812;9.232;2023-02-17T04:47:51;10.80;99.60
4461;DHT22;2243;48.812;9.232;2023-02-17T04:50:22;10.90;99.30
4461;DHT22;2243;48.812;9.232;2023-02-17T04:52:53;10.90;99.40
4461;DHT22;2243;48.812;9.232;2023-02-17T04:55:24;10.90;99.20
4461;DHT22;2243;48.812;9.232;2023-02-17T04:57:55;11.00;99.10
4461;DHT22;2243;48.812;9.232;2023-02-17T05:00:26;10.90;99.10
4461;DHT22;2243;48.812;9.232;2023-02-17T05:02:57;11.00;99.20
4461;DHT22;2243;48.812;9.232;2023-02-17T05:05:28;11.00;99.20
4461;DHT22;2243;48.812;9.232;2023-02-17T05:07:59;10.70;99.50
4461;DHT22;2243;48.812;9.232;2023-02-17T05:10:30;10.90;99.40
4461;DHT22;2243;48.812;9.232;2023-02-17T05:13:01;10.90;99.20
4461;DHT22;2243;48.812;9.232;2023-02-17T05:15:32;11.00;99.10
4461;DHT22;2243;48.812;9.232;2023-02-17T05:18:04;11.10;99.10
4461;DHT22;2243;48.812;9.232;2023-02-17T05:20:35;11.10;99.10
4461;DHT22;2243;48.812;9.232;2023-02-17T05:23:06;11.10;99.20
4461;DHT22;2243;48.812;9.232;2023-02-17T05:25:37;11.00;99.30
4461;DHT22;2243;48.812;9.232;2023-02-17T05:28:10;11.00;99.40
4461;DHT22;2243;48.812;9.232;2023-02-17T05:30:41;11.10;99.40
4461;DHT22;2243;48.812;9.232;2023-02-17T05:33:12;11.10;99.40
4461;DHT22;2243;48.812;9.232;2023-02-17T05:35:43;11.20;99.40
4461;DHT22;2243;48.812;9.232;2023-02-17T05:38:14;11.20;99.50
4461;DHT22;2243;48.812;9.232;2023-02-17T05:40:45;11.20;99.50
4461;DHT22;2243;48.812;9.232;2023-02-17T05:43:16;11.20;99.50
4461;DHT22;2243;48.812;9.232;2023-02-17T05:45:47;11.20;99.60
4461;DHT22;2243;48.812;9.232;2023-02-17T05:48:17;11.20;99.70
4461;DHT22;2243;48.812;9.232;2023-02-17T05:50:48;11.20;99.70
4461;DHT22;2243;48.812;9.232;2023-02-17T05:53:19;11.30;99.70
4461;DHT22;2243;48.812;9.232;2023-02-17T05:55:50;11.30;99.70
4461;DHT22;2243;48.812;9.232;2023-02-17T05:58:21;11.30;99.90
4461;DHT22;2243;48.812;9.232;2023-02-17T06:00:52;11.30;99.90
4461;DHT22;2243;48.812;9.232;2023-02-17T06:03:23;11.30;99.90
4461;DHT22;2243;48.812;9.232;2023-02-17T06:05:54;11.40;99.90
4461;DHT22;2243;48.812;9.232;2023-02-17T06:08:25;11.40;99.90
4461;DHT22;2243;48.812;9.232;2023-02-17T06:10:56;11.40;99.90
4461;DHT22;2243;48.812;9.232;2023-02-17T06:13:27;11.40;99.90
4461;DHT22;2243;48.812;9.232;2023-02-17T06:15:58;11.40;99.90
4461;DHT22;2243;48.812;9.232;2023-02-17T06:18:29;11.40;99.90
4461;DHT22;2243;48.812;9.232;2023-02-17T06:21:00;11.40;99.90
4461;DHT22;2243;48.812;9.232;2023-02-17T06:23:31;11.40;99.90
4461;DHT22;2243;48.812;9.232;2023-02-17T06:26:02;11.40;99.90
4461;DHT22;2243;48.812;9.232;2023-02-17T06:28:33;11.30;99.90
4461;DHT22;2243;48.812;9.232;2023-02-17T06:31:04;11.30;99.90
4461;DHT22;2243;48.812;9.232;2023-02-17T06:33:35;11.30;99.90
4461;DHT22;2243;48.812;9.232;2023-02-17T06:36:07;11.30;99.90
4461;DHT22;2243;48.812;9.232;2023-02-17T06:38:38;11.30;99.90
4461;DHT22;2243;48.812;9.232;2023-02-17T06:41:09;11.20;99.90
4461;DHT22;2243;48.812;9.232;2023-02-17T06:43:40;11.30;99.90
4461;DHT22;2243;48.812;9.232;2023-02-17T06:46:11;11.40;99.90
4461;DHT22;2243;48.812;9.232;2023-02-17T06:48:42;11.40;99.90
4461;DHT22;2243;48.812;9.232;2023-02-17T06:51:13;11.40;99.90
4461;DHT22;2243;48.812;9.232;2023-02-17T06:53:44;11.40;99.90
4461;DHT22;2243;48.812;9.232;2023-02-17T06:56:14;11.40;99.90
4461;DHT22;2243;48.812;9.232;2023-02-17T06:58:46;11.40;99.90
4461;DHT22;2243;48.812;9.232;2023-02-17T07:01:19;11.40;99.90
4461;DHT22;2243;48.812;9.232;2023-02-17T07:03:53;11.50;99.90
4461;DHT22;2243;48.812;9.232;2023-02-17T07:06:25;11.40;99.90
4461;DHT22;2243;48.812;9.232;2023-02-17T07:08:56;11.40;99.90
4461;DHT22;2243;48.812;9.232;2023-02-17T07:11:27;11.40;99.90
4461;DHT22;2243;48.812;9.232;2023-02-17T07:14:00;11.50;99.90
4461;DHT22;2243;48.812;9.232;2023-02-17T07:16:32;11.40;99.90
4461;DHT22;2243;48.812;9.232;2023-02-17T07:19:03;11.40;99.90
4461;DHT22;2243;48.812;9.232;2023-02-17T07:21:35;11.40;99.90
4461;DHT22;2243;48.812;9.232;2023-02-17T07:24:07;11.50;99.90
4461;DHT22;2243;48.812;9.232;2023-02-17T07:26:39;11.50;99.90
4461;DHT22;2243;48.812;9.232;2023-02-17T07:29:10;11.50;99.90
4461;DHT22;2243;48.812;9.232;2023-02-17T07:31:41;11.50;99.90
4461;DHT22;2243;48.812;9.232;2023-02-17T07:34:12;11.50;99.90
4461;DHT22;2243;48.812;9.232;2023-02-17T07:36:43;11.60;99.90
4461;DHT22;2243;48.812;9.232;2023-02-17T07:39:14;11.60;99.90
4461;DHT22;2243;48.812;9.232;2023-02-17T07:41:45;11.50;99.90
4461;DHT22;2243;48.812;9.232;2023-02-17T07:44:16;11.50;99.90
4461;DHT22;2243;48.812;9.232;2023-02-17T07:46:47;11.50;99.90
4461;DHT22;2243;48.812;9.232;2023-02-17T07:49:18;11.50;99.90
4461;DHT22;2243;48.812;9.232;2023-02-17T07:51:49;11.60;99.90
4461;DHT22;2243;48.812;9.232;2023-02-17T07:54:20;11.60;99.90
4461;DHT22;2243;48.812;9.232;2023-02-17T07:56:51;11.60;99.90
4461;DHT22;2243;48.812;9.232;2023-02-17T07:59:21;11.60;99.90
4461;DHT22;2243;48.812;9.232;2023-02-17T08:01:52;11.60;99.90
4461;DHT22;2243;48.812;9.232;2023-02-17T08:04:23;11.60;99.90
4461;DHT22;2243;48.812;9.232;2023-02-17T08:06:54;11.60;99.90
4461;DHT22;2243;48.812;9.232;2023-02-17T08:09:25;11.60;99.90
4461;DHT22;2243;48.812;9.232;2023-02-17T08:12:16;11.60;99.90
4461;DHT22;2243;48.812;9.232;2023-02-17T08:15:08;11.60;99.90
4461;DHT22;2243;48.812;9.232;2023-02-17T08:17:39;11.60;99.90
4461;DHT22;2243;48.812;9.232;2023-02-17T08:20:10;11.60;99.90
4461;DHT22;2243;48.812;9.232;2023-02-17T08:22:43;11.60;99.90
4461;DHT22;2243;48.812;9.232;2023-02-17T08:25:14;11.60;99.90
4461;DHT22;2243;48.812;9.232;2023-02-17T08:27:45;11.60;99.90
4461;DHT22;2243;48.812;9.232;2023-02-17T08:30:16;11.60;99.90
4461;DHT22;2243;48.812;9.232;2023-02-17T08:32:47;11.70;99.90
4461;DHT22;2243;48.812;9.232;2023-02-17T08:35:18;11.70;99.90
4461;DHT22;2243;48.812;9.232;2023-02-17T08:37:52;11.70;99.90
4461;DHT22;2243;48.812;9.232;2023-02-17T08:40:23;11.70;99.90
4461;DHT22;2243;48.812;9.232;2023-02-17T08:42:54;11.80;99.90
4461;DHT22;2243;48.812;9.232;2023-02-17T08:45:25;11.70;99.90
4461;DHT22;2243;48.812;9.232;2023-02-17T08:47:56;11.70;99.90
4461;DHT22;2243;48.812;9.232;2023-02-17T08:50:27;11.70;99.90
4461;DHT22;2243;48.812;9.232;2023-02-17T08:52:59;11.70;99.90
4461;DHT22;2243;48.812;9.232;2023-02-17T08:55:30;11.70;99.90
4461;DHT22;2243;48.812;9.232;2023-02-17T08:58:18;11.80;99.90
4461;DHT22;2243;48.812;9.232;2023-02-17T09:00:49;11.90;99.90
4461;DHT22;2243;48.812;9.232;2023-02-17T09:03:20;11.90;99.90
4461;DHT22;2243;48.812;9.232;2023-02-17T09:05:56;11.90;99.90
4461;DHT22;2243;48.812;9.232;2023-02-17T09:08:30;11.80;99.90
4461;DHT22;2243;48.812;9.232;2023-02-17T09:11:02;11.90;99.90
4461;DHT22;2243;48.812;9.232;2023-02-17T09:13:35;11.80;99.90
4461;DHT22;2243;48.812;9.232;2023-02-17T09:16:06;11.90;99.90
4461;DHT22;2243;48.812;9.232;2023-02-17T09:18:38;11.90;99.90
4461;DHT22;2243;48.812;9.232;2023-02-17T09:21:11;11.90;99.90
4461;DHT22;2243;48.812;9.232;2023-02-17T09:23:43;11.90;99.90
4461;DHT22;2243;48.812;9.232;2023-02-17T09:26:15;11.90;99.90
4461;DHT22;2243;48.812;9.232;2023-02-17T09:28:47;11.90;99.90
4461;DHT22;2243;48.812;9.232;2023-02-17T09:31:23;11.90;99.90
4461;DHT22;2243;48.812;9.232;2023-02-17T09:33:56;11.90;99.90
4461;DHT22;2243;48.812;9.232;2023-02-17T09:36:38;11.90;99.90
4461;DHT22;2243;48.812;9.232;2023-02-17T09:39:11;11.90;99.90
4461;DHT22;2243;48.812;9.232;2023-02-17T09:41:44;12.10;99.90
4461;DHT22;2243;48.812;9.232;2023-02-17T09:44:39;12.10;99.90
4461;DHT22;2243;48.812;9.232;2023-02-17T09:47:22;12.10;99.90
4461;DHT22;2243;48.812;9.232;2023-02-17T09:50:00;12.10;99.90
4461;DHT22;2243;48.812;9.232;2023-02-17T09:52:49;12.10;99.90
4461;DHT22;2243;48.812;9.232;2023-02-17T09:55:41;12.20;99.90
4461;DHT22;2243;48.812;9.232;2023-02-17T09:58:30;12.20;99.90
4461;DHT22;2243;48.812;9.232;2023-02-17T10:01:12;12.20;99.90
4461;DHT22;2243;48.812;9.232;2023-02-17T10:03:55;12.20;99.90
4461;DHT22;2243;48.812;9.232;2023-02-17T10:06:39;12.30;99.90
4461;DHT22;2243;48.812;9.232;2023-02-17T10:09:18;12.30;99.90
4461;DHT22;2243;48.812;9.232;2023-02-17T10:14:59;12.40;99.90
4461;DHT22;2243;48.812;9.232;2023-02-17T10:17:43;12.50;99.90
4461;DHT22;2243;48.812;9.232;2023-02-17T10:20:41;12.60;99.90
4461;DHT22;2243;48.812;9.232;2023-02-17T10:23:21;12.70;99.90
4461;DHT22;2243;48.812;9.232;2023-02-17T10:26:21;12.60;99.90
4461;DHT22;2243;48.812;9.232;2023-02-17T10:29:11;12.60;99.90
4461;DHT22;2243;48.812;9.232;2023-02-17T10:35:16;12.60;99.90
4461;DHT22;2243;48.812;9.232;2023-02-17T10:41:04;12.70;99.90
4461;DHT22;2243;48.812;9.232;2023-02-17T10:43:39;12.80;99.90
4461;DHT22;2243;48.812;9.232;2023-02-17T10:46:14;12.90;99.90
4461;DHT22;2243;48.812;9.232;2023-02-17T10:48:49;12.90;99.90
4461;DHT22;2243;48.812;9.232;2023-02-17T10:51:25;12.90;99.90
4461;DHT22;2243;48.812;9.232;2023-02-17T10:54:09;13.00;99.90
4461;DHT22;2243;48.812;9.232;2023-02-17T10:56:52;13.00;99.90
4461;DHT22;2243;48.812;9.232;2023-02-17T10:59:34;13.10;99.90
4461;DHT22;2243;48.812;9.232;2023-02-17T11:02:27;13.10;99.90
4461;DHT22;2243;48.812;9.232;2023-02-17T11:05:03;13.20;99.90
4461;DHT22;2243;48.812;9.232;2023-02-17T11:07:40;13.20;99.90
4461;DHT22;2243;48.812;9.232;2023-02-17T11:10:25;13.30;99.90
4461;DHT22;2243;48.812;9.232;2023-02-17T11:12:58;13.30;99.90
4461;DHT22;2243;48.812;9.232;2023-02-17T11:15:42;13.40;99.90
4461;DHT22;2243;48.812;9.232;2023-02-17T11:18:20;13.50;99.90
4461;DHT22;2243;48.812;9.232;2023-02-17T11:21:02;13.60;99.90
4461;DHT22;2243;48.812;9.232;2023-02-17T11:23:50;13.80;99.90
4461;DHT22;2243;48.812;9.232;2023-02-17T11:26:26;14.00;99.90
4461;DHT22;2243;48.812;9.232;2023-02-17T11:29:20;14.30;99.90
4461;DHT22;2243;48.812;9.232;2023-02-17T11:32:03;14.30;99.90
4461;DHT22;2243;48.812;9.232;2023-02-17T11:34:42;14.40;99.90
4461;DHT22;2243;48.812;9.232;2023-02-17T11:37:20;14.40;99.90
4461;DHT22;2243;48.812;9.232;2023-02-17T11:39:54;14.40;99.90
4461;DHT22;2243;48.812;9.232;2023-02-17T11:42:27;14.40;99.90
4461;DHT22;2243;48.812;9.232;2023-02-17T11:45:13;14.40;99.90
4461;DHT22;2243;48.812;9.232;2023-02-17T11:51:01;14.30;99.90
4461;DHT22;2243;48.812;9.232;2023-02-17T11:56:37;14.40;99.90
4461;DHT22;2243;48.812;9.232;2023-02-17T11:59:39;14.40;99.90
4461;DHT22;2243;48.812;9.232;2023-02-17T12:02:59;14.30;99.90
4461;DHT22;2243;48.812;9.232;2023-02-17T12:05:21;14.30;99.90
4461;DHT22;2243;48.812;9.232;2023-02-17T12:08:21;14.40;99.90
4461;DHT22;2243;48.812;9.232;2023-02-17T12:24:35;14.20;99.90
4461;DHT22;2243;48.812;9.232;2023-02-17T12:27:42;14.30;99.90
4461;DHT22;2243;48.812;9.232;2023-02-17T12:33:35;14.30;99.90
4461;DHT22;2243;48.812;9.232;2023-02-17T12:36:18;14.30;99.90
4461;DHT22;2243;48.812;9.232;2023-02-17T12:38:55;14.40;99.90
4461;DHT22;2243;48.812;9.232;2023-02-17T12:42:00;14.40;99.90
4461;DHT22;2243;48.812;9.232;2023-02-17T12:44:39;14.50;99.90
4461;DHT22;2243;48.812;9.232;2023-02-17T12:52:54;14.60;99.90
4461;DHT22;2243;48.812;9.232;2023-02-17T12:55:35;14.60;99.90
4461;DHT22;2243;48.812;9.232;2023-02-17T12:58:21;14.50;99.90
4461;DHT22;2243;48.812;9.232;2023-02-17T13:01:09;14.60;99.90
4461;DHT22;2243;48.812;9.232;2023-02-17T13:03:43;14.60;99.90
4461;DHT22;2243;48.812;9.232;2023-02-17T13:06:25;14.60;99.90
4461;DHT22;2243;48.812;9.232;2023-02-17T13:14:59;14.60;99.90
4461;DHT22;2243;48.812;9.232;2023-02-17T13:17:34;14.60;99.90
4461;DHT22;2243;48.812;9.232;2023-02-17T13:22:41;14.60;99.90
4461;DHT22;2243;48.812;9.232;2023-02-17T13:25:29;14.50;99.90
4461;DHT22;2243;48.812;9.232;2023-02-17T13:28:16;14.50;99.90
4461;DHT22;2243;48.812;9.232;2023-02-17T13:30:48;14.70;99.90
4461;DHT22;2243;48.812;9.232;2023-02-17T13:35:53;14.90;99.90
4461;DHT22;2243;48.812;9.232;2023-02-17T13:38:31;15.00;99.90
4461;DHT22;2243;48.812;9.232;2023-02-17T13:41:05;15.00;99.90
4461;DHT22;2243;48.812;9.232;2023-02-17T13:43:40;15.10;99.90
4461;DHT22;2243;48.812;9.232;2023-02-17T13:46:20;15.10;99.90
4461;DHT22;2243;48.812;9.232;2023-02-17T13:49:04;15.20;99.90
4461;DHT22;2243;48.812;9.232;2023-02-17T13:51:36;15.10;99.90
4461;DHT22;2243;48.812;9.232;2023-02-17T13:54:08;15.10;99.90
4461;DHT22;2243;48.812;9.232;2023-02-17T13:56:41;15.10;99.90
4461;DHT22;2243;48.812;9.232;2023-02-17T13:59:16;15.30;99.90
4461;DHT22;2243;48.812;9.232;2023-02-17T14:01:48;15.30;99.90
4461;DHT22;2243;48.812;9.232;2023-02-17T14:04:24;15.40;99.90
4461;DHT22;2243;48.812;9.232;2023-02-17T14:06:58;15.50;99.90
4461;DHT22;2243;48.812;9.232;2023-02-17T14:09:33;15.50;99.90
4461;DHT22;2243;48.812;9.232;2023-02-17T14:12:21;15.50;99.90
4461;DHT22;2243;48.812;9.232;2023-02-17T14:14:53;15.70;99.90
4461;DHT22;2243;48.812;9.232;2023-02-17T14:17:31;15.80;99.90
4461;DHT22;2243;48.812;9.232;2023-02-17T14:20:02;16.00;99.90
4461;DHT22;2243;48.812;9.232;2023-02-17T14:22:34;16.10;99.90
4461;DHT22;2243;48.812;9.232;2023-02-17T14:25:12;16.10;99.90
4461;DHT22;2243;48.812;9.232;2023-02-17T14:27:48;16.00;99.90
4461;DHT22;2243;48.812;9.232;2023-02-17T14:30:35;16.00;99.90
4461;DHT22;2243;48.812;9.232;2023-02-17T14:36:04;15.80;99.90
4461;DHT22;2243;48.812;9.232;2023-02-17T14:38:40;15.60;99.90
4461;DHT22;2243;48.812;9.232;2023-02-17T14:41:11;15.70;99.90
4461;DHT22;2243;48.812;9.232;2023-02-17T14:43:42;15.70;99.90
4461;DHT22;2243;48.812;9.232;2023-02-17T14:46:13;15.60;99.90
4461;DHT22;2243;48.812;9.232;2023-02-17T14:48:50;15.60;99.90
4461;DHT22;2243;48.812;9.232;2023-02-17T14:51:23;15.50;99.90
4461;DHT22;2243;48.812;9.232;2023-02-17T14:53:55;15.50;99.90
4461;DHT22;2243;48.812;9.232;2023-02-17T14:56:32;15.60;99.90
4461;DHT22;2243;48.812;9.232;2023-02-17T14:59:04;15.50;99.90
4461;DHT22;2243;48.812;9.232;2023-02-17T15:01:35;15.50;99.90
4461;DHT22;2243;48.812;9.232;2023-02-17T15:04:06;15.50;99.90
4461;DHT22;2243;48.812;9.232;2023-02-17T15:06:40;15.50;99.90
4461;DHT22;2243;48.812;9.232;2023-02-17T15:09:15;15.50;99.90
4461;DHT22;2243;48.812;9.232;2023-02-17T15:11:48;15.40;99.90
4461;DHT22;2243;48.812;9.232;2023-02-17T15:14:19;15.50;99.90
4461;DHT22;2243;48.812;9.232;2023-02-17T15:16:50;15.50;99.90
4461;DHT22;2243;48.812;9.232;2023-02-17T15:19:21;15.40;99.90
4461;DHT22;2243;48.812;9.232;2023-02-17T15:21:54;15.40;99.90
4461;DHT22;2243;48.812;9.232;2023-02-17T15:24:27;15.30;99.90
4461;DHT22;2243;48.812;9.232;2023-02-17T15:27:04;15.20;99.90
4461;DHT22;2243;48.812;9.232;2023-02-17T15:29:35;15.10;99.90
4461;DHT22;2243;48.812;9.232;2023-02-17T15:32:13;15.00;99.90
4461;DHT22;2243;48.812;9.232;2023-02-17T15:34:48;14.90;99.90
4461;DHT22;2243;48.812;9.232;2023-02-17T15:37:19;14.90;99.90
4461;DHT22;2243;48.812;9.232;2023-02-17T15:39:50;14.90;99.90
4461;DHT22;2243;48.812;9.232;2023-02-17T15:42:21;14.80;99.90
4461;DHT22;2243;48.812;9.232;2023-02-17T15:44:52;14.70;99.90
4461;DHT22;2243;48.812;9.232;2023-02-17T15:47:23;14.60;99.90
4461;DHT22;2243;48.812;9.232;2023-02-17T15:49:53;14.50;99.90
4461;DHT22;2243;48.812;9.232;2023-02-17T15:52:24;14.40;99.90
4461;DHT22;2243;48.812;9.232;2023-02-17T15:54:55;14.50;99.90
4461;DHT22;2243;48.812;9.232;2023-02-17T15:57:26;14.40;99.90
4461;DHT22;2243;48.812;9.232;2023-02-17T15:59:58;14.40;99.90
4461;DHT22;2243;48.812;9.232;2023-02-17T16:02:29;14.40;99.90
4461;DHT22;2243;48.812;9.232;2023-02-17T16:05:00;14.30;99.90
4461;DHT22;2243;48.812;9.232;2023-02-17T16:07:31;14.20;99.90
4461;DHT22;2243;48.812;9.232;2023-02-17T16:10:03;14.20;99.90
4461;DHT22;2243;48.812;9.232;2023-02-17T16:12:35;14.20;99.90
4461;DHT22;2243;48.812;9.232;2023-02-17T16:15:20;14.20;99.90
4461;DHT22;2243;48.812;9.232;2023-02-17T16:17:53;14.20;99.90
4461;DHT22;2243;48.812;9.232;2023-02-17T16:20:28;14.20;99.90
4461;DHT22;2243;48.812;9.232;2023-02-17T16:23:04;14.20;99.90
4461;DHT22;2243;48.812;9.232;2023-02-17T16:25:35;14.20;99.90
4461;DHT22;2243;48.812;9.232;2023-02-17T16:28:17;14.10;99.90
4461;DHT22;2243;48.812;9.232;2023-02-17T16:30:50;14.00;99.90
4461;DHT22;2243;48.812;9.232;2023-02-17T16:33:21;14.10;99.90
4461;DHT22;2243;48.812;9.232;2023-02-17T16:35:53;14.00;99.90
4461;DHT22;2243;48.812;9.232;2023-02-17T16:38:24;14.10;99.90
4461;DHT22;2243;48.812;9.232;2023-02-17T16:40:55;14.10;99.90
4461;DHT22;2243;48.812;9.232;2023-02-17T16:43:27;14.10;99.90
4461;DHT22;2243;48.812;9.232;2023-02-17T16:46:01;14.10;99.90
4461;DHT22;2243;48.812;9.232;2023-02-17T16:48:35;14.10;99.90
4461;DHT22;2243;48.812;9.232;2023-02-17T16:51:06;14.00;99.90
4461;DHT22;2243;48.812;9.232;2023-02-17T16:53:38;14.10;99.90
4461;DHT22;2243;48.812;9.232;2023-02-17T16:56:16;14.10;99.90
4461;DHT22;2243;48.812;9.232;2023-02-17T16:58:50;14.10;99.90
4461;DHT22;2243;48.812;9.232;2023-02-17T17:01:21;14.20;99.90
4461;DHT22;2243;48.812;9.232;2023-02-17T17:03:54;14.10;99.90
4461;DHT22;2243;48.812;9.232;2023-02-17T17:06:27;14.00;99.90
4461;DHT22;2243;48.812;9.232;2023-02-17T17:08:59;14.00;99.90
4461;DHT22;2243;48.812;9.232;2023-02-17T17:11:31;14.00;99.90
4461;DHT22;2243;48.812;9.232;2023-02-17T17:14:02;14.00;99.90
4461;DHT22;2243;48.812;9.232;2023-02-17T17:16:33;14.10;99.90
4461;DHT22;2243;48.812;9.232;2023-02-17T17:19:04;14.00;99.90
4461;DHT22;2243;48.812;9.232;2023-02-17T17:21:36;14.10;99.90
4461;DHT22;2243;48.812;9.232;2023-02-17T17:24:07;14.10;99.90
4461;DHT22;2243;48.812;9.232;2023-02-17T17:26:40;14.10;99.90
4461;DHT22;2243;48.812;9.232;2023-02-17T17:29:16;14.00;99.90
4461;DHT22;2243;48.812;9.232;2023-02-17T17:31:48;14.10;99.90
4461;DHT22;2243;48.812;9.232;2023-02-17T17:34:19;14.10;99.90
4461;DHT22;2243;48.812;9.232;2023-02-17T17:36:50;14.00;99.90
4461;DHT22;2243;48.812;9.232;2023-02-17T17:39:22;14.00;99.90
4461;DHT22;2243;48.812;9.232;2023-02-17T17:41:53;14.00;99.90
4461;DHT22;2243;48.812;9.232;2023-02-17T17:44:26;14.00;99.90
4461;DHT22;2243;48.812;9.232;2023-02-17T17:46:59;13.90;99.90
4461;DHT22;2243;48.812;9.232;2023-02-17T17:49:29;13.90;99.90
4461;DHT22;2243;48.812;9.232;2023-02-17T17:52:00;14.00;99.90
4461;DHT22;2243;48.812;9.232;2023-02-17T17:54:31;14.00;99.90
4461;DHT22;2243;48.812;9.232;2023-02-17T17:57:02;14.00;99.90
4461;DHT22;2243;48.812;9.232;2023-02-17T17:59:33;14.00;99.90
4461;DHT22;2243;48.812;9.232;2023-02-17T18:02:05;13.90;99.90
4461;DHT22;2243;48.812;9.232;2023-02-17T18:04:36;14.00;99.90